Time;durP1;ratioP1;P1;durP2;ratioP2;P2;SDS_P1;SDS_P2;PMS_P1;PMS_P2;Temp;Humidity;BMP_temperature;BMP_pressure;BME280_temperature;BME280_humidity;BME280_pressure;Samples;Min_cycle;Max_cycle;Signal;HPM_P1;HPM_P2
2023/11/13 00:00:20;;;;;;;27.90;14.68;;;7.80;99.90;;;;;;5028055;27;20022;-72
2023/11/13 00:02:46;;;;;;;26.48;14.23;;;7.80;99.90;;;;;;5034936;27;20131;-75
2023/11/13 00:05:11;;;;;;;23.90;13.70;;;7.90;99.90;;;;;;5022675;27;20025;-72
2023/11/13 00:07:37;;;;;;;27.67;14.77;;;8.00;99.90;;;;;;5028233;27;20113;-75
2023/11/13 00:10:03;;;;;;;26.30;13.88;;;8.00;99.90;;;;;;5021395;27;20033;-73
2023/11/13 00:12:29;;;;;;;27.25;13.98;;;8.00;99.90;;;;;;5034998;27;20493;-72
2023/11/13 00:14:55;;;;;;;26.65;14.68;;;8.00;99.90;;;;;;5024744;27;20117;-77
2023/11/13 00:17:21;;;;;;;24.88;15.15;;;8.00;99.90;;;;;;5019157;27;20069;-79
2023/11/13 00:19:47;;;;;;;25.75;14.63;;;8.00;99.90;;;;;;5037568;27;20152;-73
2023/11/13 00:22:13;;;;;;;27.45;15.38;;;8.00;99.90;;;;;;5024377;27;20415;-76
2023/11/13 00:24:39;;;;;;;28.58;16.33;;;7.90;99.90;;;;;;5018580;27;20422;-75
2023/11/13 00:27:05;;;;;;;31.10;17.48;;;7.90;99.90;;;;;;5017185;28;20351;-79
2023/11/13 00:29:30;;;;;;;23.17;15.63;;;8.00;99.90;;;;;;5015093;28;20037;-76
2023/11/13 00:31:56;;;;;;;30.02;15.85;;;8.00;99.90;;;;;;5030076;27;20022;-73
2023/11/13 00:34:22;;;;;;;29.20;16.63;;;8.00;99.90;;;;;;5042298;27;20030;-74
2023/11/13 00:36:50;;;;;;;23.77;14.43;;;8.00;99.90;;;;;;5024468;27;20033;-79
2023/11/13 00:39:17;;;;;;;24.90;15.15;;;7.90;99.90;;;;;;5022878;28;20033;-81
2023/11/13 00:41:43;;;;;;;29.55;16.35;;;7.90;99.90;;;;;;5020358;27;20023;-73
2023/11/13 00:44:09;;;;;;;29.02;17.13;;;7.90;99.90;;;;;;5019159;28;20099;-77
2023/11/13 00:46:35;;;;;;;26.67;15.95;;;8.00;99.90;;;;;;5018152;28;20055;-73
2023/11/13 00:49:00;;;;;;;28.40;16.75;;;8.00;99.90;;;;;;5025988;28;20374;-73
2023/11/13 00:51:26;;;;;;;26.45;15.95;;;8.00;99.90;;;;;;5025959;28;20030;-73
2023/11/13 00:53:52;;;;;;;23.85;16.08;;;8.00;99.90;;;;;;5025449;28;20093;-75
2023/11/13 00:56:18;;;;;;;31.58;17.15;;;8.10;99.90;;;;;;5024075;28;20079;-73
2023/11/13 00:58:43;;;;;;;32.08;17.55;;;8.10;99.90;;;;;;5040253;28;20479;-75
2023/11/13 01:01:10;;;;;;;30.65;17.55;;;8.10;99.90;;;;;;5020849;28;20030;-76
2023/11/13 01:03:36;;;;;;;30.00;17.65;;;8.10;99.90;;;;;;5031766;28;20075;-74
2023/11/13 01:06:02;;;;;;;32.42;17.63;;;8.10;99.90;;;;;;5020970;28;20029;-74
2023/11/13 01:08:28;;;;;;;33.42;18.27;;;8.10;99.90;;;;;;5030375;27;20025;-76
2023/11/13 01:10:54;;;;;;;35.53;16.88;;;8.00;99.90;;;;;;5019845;28;20071;-73
2023/11/13 01:13:21;;;;;;;29.48;17.25;;;8.00;99.90;;;;;;5039839;28;20030;-73
2023/11/13 01:15:52;;;;;;;27.88;17.50;;;8.00;99.90;;;;;;5024404;28;20034;-73
2023/11/13 01:18:18;;;;;;;35.13;18.38;;;8.00;99.90;;;;;;5031878;28;20030;-80
2023/11/13 01:20:45;;;;;;;31.52;18.67;;;8.00;99.90;;;;;;5041450;28;20026;-74
2023/11/13 01:23:11;;;;;;;33.92;18.85;;;8.00;99.90;;;;;;5020634;28;20034;-76
2023/11/13 01:25:36;;;;;;;33.28;17.98;;;8.00;99.90;;;;;;5022939;28;20523;-75
2023/11/13 01:28:02;;;;;;;38.67;19.98;;;8.10;99.90;;;;;;5032696;28;20082;-73
2023/11/13 01:30:28;;;;;;;28.52;16.83;;;8.10;99.90;;;;;;5022405;27;20525;-74
2023/11/13 01:32:54;;;;;;;26.50;16.77;;;8.10;99.90;;;;;;5034754;27;20041;-76
2023/11/13 01:35:20;;;;;;;29.38;17.63;;;8.20;99.90;;;;;;5041713;27;20027;-74
2023/11/13 01:37:46;;;;;;;29.80;15.02;;;8.20;99.90;;;;;;5028718;27;20040;-71
2023/11/13 01:40:12;;;;;;;26.50;16.23;;;8.30;99.90;;;;;;5026732;27;20463;-75
2023/11/13 01:42:38;;;;;;;30.05;16.33;;;8.30;99.90;;;;;;5033113;27;20390;-74
2023/11/13 01:45:05;;;;;;;28.60;16.73;;;8.30;99.90;;;;;;5035549;27;20018;-73
2023/11/13 01:47:31;;;;;;;30.90;16.02;;;8.40;99.90;;;;;;5028116;27;20038;-77
2023/11/13 01:49:58;;;;;;;33.97;18.20;;;8.40;99.90;;;;;;5034781;27;20113;-75
2023/11/13 01:52:25;;;;;;;29.33;17.15;;;8.30;99.90;;;;;;5065293;27;20074;-74
2023/11/13 01:54:50;;;;;;;34.60;17.45;;;8.30;99.90;;;;;;5033653;27;20026;-72
2023/11/13 01:57:16;;;;;;;31.15;15.65;;;8.30;99.90;;;;;;5025536;27;20481;-74
2023/11/13 01:59:44;;;;;;;29.77;18.27;;;8.30;99.90;;;;;;5034617;27;20017;-72
2023/11/13 02:02:10;;;;;;;29.30;16.40;;;8.30;99.90;;;;;;5022568;27;20068;-76
2023/11/13 02:04:36;;;;;;;26.55;17.30;;;8.40;99.90;;;;;;5029596;27;20052;-74
2023/11/13 02:07:04;;;;;;;26.35;17.15;;;8.40;99.90;;;;;;5025486;27;20117;-72
2023/11/13 02:09:30;;;;;;;33.80;17.58;;;8.40;99.90;;;;;;5023524;27;20464;-72
2023/11/13 02:11:57;;;;;;;26.42;16.83;;;8.40;99.90;;;;;;5018763;28;20026;-72
2023/11/13 02:14:24;;;;;;;26.35;16.35;;;8.40;99.90;;;;;;5036236;27;20424;-72
2023/11/13 02:16:49;;;;;;;28.02;15.68;;;8.50;99.90;;;;;;5017415;28;20025;-74
2023/11/13 02:19:18;;;;;;;26.85;15.63;;;8.50;99.90;;;;;;5030528;27;20041;-72
2023/11/13 02:21:44;;;;;;;31.20;15.10;;;8.50;99.90;;;;;;5016551;27;20117;-74
2023/11/13 02:24:12;;;;;;;25.02;14.60;;;8.60;99.90;;;;;;5026589;27;20526;-77
2023/11/13 02:26:37;;;;;;;22.60;14.82;;;8.50;99.90;;;;;;5036657;27;20112;-75
2023/11/13 02:29:03;;;;;;;24.52;16.10;;;8.60;99.90;;;;;;5033504;27;20148;-72
2023/11/13 02:31:29;;;;;;;26.38;16.05;;;8.70;99.90;;;;;;5036763;27;20025;-72
2023/11/13 02:33:55;;;;;;;34.38;17.52;;;8.60;99.90;;;;;;5058610;27;20052;-73
2023/11/13 02:36:21;;;;;;;26.67;16.20;;;8.60;99.90;;;;;;5019017;28;20474;-76
2023/11/13 02:38:47;;;;;;;26.17;14.70;;;8.60;99.90;;;;;;5032852;27;20058;-73
2023/11/13 02:41:13;;;;;;;26.23;16.13;;;8.70;99.90;;;;;;5020620;27;20031;-72
2023/11/13 02:43:39;;;;;;;28.83;16.70;;;8.70;99.90;;;;;;5025331;27;20018;-72
2023/11/13 02:46:05;;;;;;;25.33;15.05;;;8.70;99.90;;;;;;5024600;27;20030;-72
2023/11/13 02:48:32;;;;;;;27.08;16.42;;;8.70;99.90;;;;;;5029010;27;20470;-73
2023/11/13 02:50:58;;;;;;;24.35;15.68;;;8.70;99.90;;;;;;5026450;27;20034;-74
2023/11/13 02:53:23;;;;;;;24.17;14.80;;;8.80;99.90;;;;;;5021771;27;20011;-72
2023/11/13 02:55:51;;;;;;;27.20;15.95;;;8.80;99.90;;;;;;5025249;27;20462;-72
2023/11/13 02:58:17;;;;;;;28.98;16.90;;;8.70;99.90;;;;;;5029781;27;20490;-75
2023/11/13 03:00:43;;;;;;;25.98;16.38;;;8.70;99.90;;;;;;5033203;27;20021;-74
2023/11/13 03:03:09;;;;;;;42.75;17.95;;;8.70;99.90;;;;;;5033880;27;20478;-75
2023/11/13 03:05:34;;;;;;;29.10;16.48;;;8.80;99.90;;;;;;5024285;27;20109;-72
2023/11/13 03:08:00;;;;;;;40.47;19.45;;;8.80;99.90;;;;;;5036510;27;20390;-73
2023/11/13 03:10:26;;;;;;;24.90;15.90;;;8.80;99.90;;;;;;5019112;27;20379;-73
2023/11/13 03:12:51;;;;;;;32.35;16.88;;;8.90;99.90;;;;;;5035421;27;20079;-71
2023/11/13 03:15:17;;;;;;;25.00;15.82;;;8.90;99.90;;;;;;5024024;27;20018;-72
2023/11/13 03:17:43;;;;;;;36.05;17.90;;;9.00;99.90;;;;;;5028483;27;20041;-72
2023/11/13 03:20:09;;;;;;;39.15;18.30;;;9.00;99.90;;;;;;5028479;27;20022;-71
2023/11/13 03:22:34;;;;;;;32.83;18.23;;;9.00;99.90;;;;;;5029660;27;20074;-72
2023/11/13 03:25:01;;;;;;;21.40;14.80;;;9.00;99.90;;;;;;5016331;27;20053;-72
2023/11/13 03:27:26;;;;;;;32.08;15.52;;;9.00;99.90;;;;;;5024808;27;20086;-72
2023/11/13 03:29:53;;;;;;;34.08;18.20;;;9.10;99.90;;;;;;5017712;27;20580;-72
2023/11/13 03:32:19;;;;;;;26.08;15.27;;;9.10;99.90;;;;;;5021191;27;20025;-72
2023/11/13 03:34:44;;;;;;;27.35;16.63;;;9.10;99.90;;;;;;5029054;27;20022;-72
2023/11/13 03:37:10;;;;;;;39.63;18.67;;;9.20;99.90;;;;;;5026816;27;20372;-73
2023/11/13 03:39:36;;;;;;;39.85;18.75;;;9.10;99.90;;;;;;5025834;27;20030;-72
2023/11/13 03:42:02;;;;;;;36.15;19.85;;;9.00;99.90;;;;;;5019563;27;20029;-72
2023/11/13 03:44:28;;;;;;;34.10;18.10;;;9.00;99.90;;;;;;5030911;27;20025;-72
2023/11/13 03:46:54;;;;;;;26.30;15.50;;;9.00;99.90;;;;;;5028848;27;20382;-73
2023/11/13 03:49:19;;;;;;;25.75;14.07;;;9.10;99.90;;;;;;5037766;27;20108;-72
2023/11/13 03:51:45;;;;;;;35.17;16.60;;;9.10;99.90;;;;;;5029221;27;20064;-73
2023/11/13 03:54:11;;;;;;;34.47;17.10;;;9.10;99.90;;;;;;5023706;27;20032;-72
2023/11/13 03:56:36;;;;;;;23.05;14.35;;;9.10;99.90;;;;;;5028551;27;20575;-73
2023/11/13 03:59:02;;;;;;;40.45;18.98;;;9.20;99.90;;;;;;5034772;27;20082;-72
2023/11/13 04:01:27;;;;;;;31.45;17.77;;;9.10;99.90;;;;;;5034980;27;20069;-72
2023/11/13 04:03:53;;;;;;;42.17;20.05;;;9.30;99.90;;;;;;5016872;28;20402;-72
2023/11/13 04:06:19;;;;;;;26.33;15.75;;;9.20;99.90;;;;;;5029731;27;20023;-73
2023/11/13 04:08:44;;;;;;;37.83;18.75;;;9.30;99.90;;;;;;5013126;28;20033;-73
2023/11/13 04:11:10;;;;;;;31.63;16.35;;;9.20;99.90;;;;;;5020667;27;20112;-73
2023/11/13 04:13:36;;;;;;;39.47;18.85;;;9.30;99.90;;;;;;5021712;27;20470;-72
2023/11/13 04:16:03;;;;;;;34.58;18.02;;;9.30;99.90;;;;;;5028130;28;20143;-73
2023/11/13 04:18:29;;;;;;;55.47;20.25;;;9.30;99.90;;;;;;5031616;27;20038;-72
2023/11/13 04:20:55;;;;;;;38.78;19.08;;;9.30;99.90;;;;;;5020344;27;20032;-73
2023/11/13 04:23:23;;;;;;;38.30;16.65;;;9.30;99.90;;;;;;5029521;27;20036;-73
2023/11/13 04:25:51;;;;;;;36.58;17.35;;;9.40;99.90;;;;;;5026846;27;20099;-72
2023/11/13 04:28:19;;;;;;;40.72;17.88;;;9.30;99.90;;;;;;5027120;27;20097;-72
2023/11/13 04:30:46;;;;;;;35.38;17.80;;;9.30;99.90;;;;;;5039398;28;20024;-72
2023/11/13 04:33:12;;;;;;;31.55;16.42;;;9.30;99.90;;;;;;5017896;28;20025;-73
2023/11/13 04:35:38;;;;;;;35.08;16.70;;;9.40;99.90;;;;;;5059999;27;20081;-74
2023/11/13 04:38:04;;;;;;;39.97;17.77;;;9.40;99.90;;;;;;5032396;27;20443;-73
2023/11/13 04:40:30;;;;;;;43.28;20.50;;;9.40;99.90;;;;;;5019236;27;20109;-74
2023/11/13 04:42:58;;;;;;;64.03;21.45;;;9.40;99.90;;;;;;5023488;27;20100;-73
2023/11/13 04:45:24;;;;;;;45.80;20.30;;;9.40;99.90;;;;;;5035492;28;20041;-73
2023/11/13 04:47:49;;;;;;;71.05;23.13;;;9.50;99.90;;;;;;5033053;28;20026;-74
2023/11/13 04:50:15;;;;;;;77.35;24.70;;;9.60;99.90;;;;;;5019670;28;20377;-74
2023/11/13 04:52:41;;;;;;;60.08;21.30;;;9.60;99.90;;;;;;5021745;28;20022;-73
2023/11/13 04:55:09;;;;;;;68.30;25.75;;;9.70;99.90;;;;;;5027846;28;20519;-78
2023/11/13 04:57:35;;;;;;;72.50;22.98;;;9.80;99.90;;;;;;5024758;28;20091;-72
2023/11/13 05:00:01;;;;;;;37.63;18.80;;;9.70;99.90;;;;;;5038619;28;20546;-72
2023/11/13 05:02:27;;;;;;;106.75;28.77;;;9.70;99.90;;;;;;5026634;28;20096;-72
2023/11/13 05:04:53;;;;;;;98.25;29.25;;;9.80;99.90;;;;;;5059220;27;20124;-75
2023/11/13 05:07:19;;;;;;;107.35;29.80;;;9.80;99.90;;;;;;5032331;27;20088;-72
2023/11/13 05:09:45;;;;;;;118.22;32.05;;;9.80;99.90;;;;;;5022749;27;20057;-73
2023/11/13 05:12:10;;;;;;;102.80;27.92;;;9.80;99.90;;;;;;5027733;27;20026;-72
2023/11/13 05:14:40;;;;;;;112.57;31.90;;;10.00;99.90;;;;;;5021569;27;20030;-72
2023/11/13 05:17:05;;;;;;;82.82;26.35;;;9.90;99.90;;;;;;5020508;27;20072;-72
2023/11/13 05:19:31;;;;;;;138.20;33.03;;;9.90;99.90;;;;;;5030538;27;20068;-72
2023/11/13 05:21:57;;;;;;;97.45;28.67;;;10.00;99.90;;;;;;5026432;27;20030;-71
2023/11/13 05:24:23;;;;;;;83.53;27.98;;;10.10;99.90;;;;;;5034086;27;20450;-72
2023/11/13 05:26:51;;;;;;;90.68;29.05;;;10.10;99.90;;;;;;5022688;27;20010;-71
2023/11/13 05:29:16;;;;;;;90.72;28.30;;;10.20;99.90;;;;;;5029792;27;20690;-71
2023/11/13 05:31:42;;;;;;;74.10;26.45;;;10.20;99.90;;;;;;5021454;28;20546;-71
2023/11/13 05:34:08;;;;;;;83.07;27.98;;;10.20;99.90;;;;;;5030494;27;20036;-71
2023/11/13 05:36:33;;;;;;;73.78;27.90;;;10.30;99.90;;;;;;5042120;27;20037;-71
2023/11/13 05:38:59;;;;;;;102.78;29.63;;;10.30;99.90;;;;;;5035748;27;20061;-71
2023/11/13 05:41:25;;;;;;;90.15;28.35;;;10.30;99.90;;;;;;5019444;27;20493;-71
2023/11/13 05:43:54;;;;;;;82.38;26.63;;;10.40;99.90;;;;;;5033234;27;20460;-71
2023/11/13 05:46:21;;;;;;;73.90;25.73;;;10.40;99.90;;;;;;5018131;27;20022;-71
2023/11/13 05:48:46;;;;;;;74.65;25.63;;;10.50;99.90;;;;;;5033442;27;20033;-71
2023/11/13 05:51:14;;;;;;;71.05;24.17;;;10.40;99.90;;;;;;5017697;28;20037;-71
2023/11/13 05:53:40;;;;;;;93.00;26.45;;;10.50;99.90;;;;;;5025329;27;20064;-71
2023/11/13 05:56:06;;;;;;;79.55;24.88;;;10.50;99.90;;;;;;5022595;27;20527;-71
2023/11/13 05:58:32;;;;;;;75.20;24.13;;;10.50;99.90;;;;;;5033417;27;20034;-71
2023/11/13 06:00:57;;;;;;;85.68;26.60;;;10.50;99.90;;;;;;5021460;27;20030;-71
2023/11/13 06:03:23;;;;;;;82.53;26.73;;;10.60;99.90;;;;;;5022255;28;20360;-70
2023/11/13 06:05:49;;;;;;;78.15;25.40;;;10.60;99.90;;;;;;5023838;27;20031;-71
2023/11/13 06:08:15;;;;;;;67.45;23.85;;;10.70;99.90;;;;;;5026115;27;20121;-71
2023/11/13 06:10:41;;;;;;;71.53;24.50;;;10.70;99.90;;;;;;5022704;28;20537;-71
2023/11/13 06:13:07;;;;;;;69.78;22.98;;;10.70;99.90;;;;;;5023426;28;20029;-71
2023/11/13 06:15:33;;;;;;;63.63;20.88;;;10.70;99.90;;;;;;5033966;28;20023;-71
2023/11/13 06:17:59;;;;;;;88.88;24.48;;;10.80;99.90;;;;;;5023794;28;20174;-73
2023/11/13 06:20:25;;;;;;;81.38;24.13;;;10.80;99.90;;;;;;5023996;28;20029;-71
2023/11/13 06:22:51;;;;;;;58.75;19.10;;;10.90;99.90;;;;;;5022739;28;20081;-71
2023/11/13 06:25:17;;;;;;;58.20;17.88;;;10.90;99.90;;;;;;5023087;28;20035;-70
2023/11/13 06:27:43;;;;;;;63.65;18.98;;;10.90;99.90;;;;;;5016963;28;20501;-70
2023/11/13 06:30:12;;;;;;;66.20;18.35;;;11.00;99.90;;;;;;5032384;28;20029;-71
2023/11/13 06:32:38;;;;;;;58.83;16.90;;;10.90;99.90;;;;;;5031916;28;20497;-70
2023/11/13 06:35:05;;;;;;;58.00;16.73;;;11.00;99.90;;;;;;5025152;28;20085;-71
2023/11/13 06:37:31;;;;;;;55.90;17.65;;;11.10;99.90;;;;;;5028115;28;20026;-72
2023/11/13 06:39:57;;;;;;;72.40;19.05;;;11.00;99.90;;;;;;5026505;28;20038;-71
2023/11/13 06:42:22;;;;;;;58.33;15.63;;;11.10;99.90;;;;;;5024064;28;20102;-75
2023/11/13 06:44:48;;;;;;;64.68;16.15;;;11.10;99.90;;;;;;5032077;27;20051;-71
2023/11/13 06:47:14;;;;;;;53.38;15.70;;;11.20;99.90;;;;;;5018752;28;20028;-75
2023/11/13 06:49:39;;;;;;;55.50;14.35;;;11.20;99.90;;;;;;5022208;28;21255;-72
2023/11/13 06:52:08;;;;;;;47.88;14.02;;;11.20;99.90;;;;;;5017712;28;20390;-71
2023/11/13 06:54:35;;;;;;;56.35;15.70;;;11.20;99.90;;;;;;5032093;28;20022;-70
2023/11/13 06:57:02;;;;;;;65.05;16.30;;;11.30;99.90;;;;;;5035860;28;20109;-71
2023/11/13 06:59:28;;;;;;;51.92;14.25;;;11.20;99.90;;;;;;5014459;28;20025;-71
2023/11/13 07:01:53;;;;;;;70.32;18.23;;;11.30;99.90;;;;;;5049135;28;20040;-73
2023/11/13 07:04:19;;;;;;;75.47;17.52;;;11.30;99.90;;;;;;5020779;27;20018;-71
2023/11/13 07:06:45;;;;;;;69.43;16.55;;;11.30;99.90;;;;;;5021628;28;20030;-71
2023/11/13 07:09:11;;;;;;;62.83;16.42;;;11.30;99.90;;;;;;4996870;27;1175985;-71
2023/11/13 07:11:42;;;;;;;68.95;18.63;;;11.30;99.90;;;;;;5037921;27;20025;-71
2023/11/13 07:14:12;;;;;;;59.47;16.15;;;11.30;99.90;;;;;;5023374;27;20022;-71
2023/11/13 07:16:42;;;;;;;81.40;19.67;;;11.40;99.90;;;;;;5023945;27;20048;-71
2023/11/13 07:19:09;;;;;;;66.88;20.35;;;11.40;99.90;;;;;;5019881;27;20038;-71
2023/11/13 07:21:35;;;;;;;61.55;18.55;;;11.40;99.90;;;;;;5018425;27;20040;-73
2023/11/13 07:24:05;;;;;;;78.63;21.52;;;11.40;99.90;;;;;;5024679;27;20034;-71
2023/11/13 07:26:32;;;;;;;65.68;18.00;;;11.50;99.90;;;;;;5027780;27;20536;-70
2023/11/13 07:28:58;;;;;;;59.40;15.82;;;11.50;99.90;;;;;;5018499;27;20022;-75
2023/11/13 07:31:24;;;;;;;61.55;15.95;;;11.50;99.90;;;;;;5033654;27;20023;-70
2023/11/13 07:33:50;;;;;;;51.78;16.08;;;11.50;99.90;;;;;;5027567;27;20028;-71
2023/11/13 07:36:17;;;;;;;58.72;16.42;;;11.50;99.90;;;;;;5024150;27;20025;-71
2023/11/13 07:38:43;;;;;;;52.47;14.70;;;11.50;99.90;;;;;;5025924;27;20041;-71
2023/11/13 07:41:11;;;;;;;74.43;16.67;;;11.60;99.90;;;;;;5022442;27;20024;-70
2023/11/13 07:43:41;;;;;;;56.35;14.35;;;11.60;99.90;;;;;;5025439;27;20029;-71
2023/11/13 07:46:08;;;;;;;68.60;16.02;;;11.60;99.90;;;;;;5037340;27;20022;-72
2023/11/13 07:48:37;;;;;;;49.30;13.98;;;11.60;99.90;;;;;;5021219;27;20449;-72
2023/11/13 07:51:04;;;;;;;52.33;14.60;;;11.60;99.90;;;;;;5030657;27;20034;-70
2023/11/13 07:53:31;;;;;;;64.07;14.05;;;11.60;99.90;;;;;;5020852;27;20025;-70
2023/11/13 07:55:57;;;;;;;42.22;10.27;;;11.60;99.90;;;;;;5049569;27;20030;-70
2023/11/13 07:58:23;;;;;;;42.17;11.65;;;11.60;99.90;;;;;;5016697;27;20030;-71
2023/11/13 08:00:52;;;;;;;47.10;10.27;;;11.60;99.90;;;;;;5027004;27;20026;-71
2023/11/13 08:03:22;;;;;;;46.40;10.00;;;11.60;99.90;;;;;;5023960;27;20025;-72
2023/11/13 08:05:48;;;;;;;45.25;10.70;;;11.60;99.90;;;;;;5022384;27;20036;-71
2023/11/13 08:08:15;;;;;;;41.28;9.10;;;11.60;99.90;;;;;;5036076;27;20109;-71
2023/11/13 08:10:41;;;;;;;34.72;9.00;;;11.50;99.90;;;;;;5027929;27;20025;-73
2023/11/13 08:13:06;;;;;;;42.83;9.18;;;11.50;99.90;;;;;;5018022;27;20030;-72
2023/11/13 08:15:34;;;;;;;38.90;10.10;;;11.50;99.90;;;;;;5023860;27;20443;-71
2023/11/13 08:18:00;;;;;;;36.83;8.98;;;11.50;99.90;;;;;;5020170;27;20040;-75
2023/11/13 08:20:26;;;;;;;29.73;7.47;;;11.50;99.90;;;;;;5017995;28;20067;-76
2023/11/13 08:22:57;;;;;;;32.28;7.03;;;11.50;99.90;;;;;;5037622;27;20389;-73
2023/11/13 08:25:26;;;;;;;23.75;6.60;;;11.50;99.90;;;;;;5029514;27;20030;-76
2023/11/13 08:27:52;;;;;;;35.88;6.72;;;11.60;99.90;;;;;;5020821;27;20033;-73
2023/11/13 08:30:22;;;;;;;33.03;7.10;;;11.50;99.90;;;;;;5033764;27;20490;-73
2023/11/13 08:32:54;;;;;;;28.98;6.55;;;11.50;99.90;;;;;;5028344;27;20485;-72
2023/11/13 08:35:20;;;;;;;21.88;6.47;;;11.40;99.90;;;;;;5019204;27;20028;-72
2023/11/13 08:37:46;;;;;;;24.10;6.93;;;11.40;99.90;;;;;;5021827;28;20041;-72
2023/11/13 08:40:19;;;;;;;28.40;6.30;;;11.50;99.90;;;;;;5006289;28;20030;-72
2023/11/13 08:42:46;;;;;;;;;;;11.50;99.90;;;;;;5022274;27;20108;-72
2023/11/13 08:45:13;;;;;;;31.25;7.18;;;11.40;99.90;;;;;;5016980;27;19913;-72
2023/11/13 08:47:40;;;;;;;34.85;7.90;;;11.50;99.90;;;;;;5028365;28;20469;-73
2023/11/13 08:50:09;;;;;;;24.58;7.00;;;11.50;99.90;;;;;;5029614;28;20736;-72
2023/11/13 08:52:35;;;;;;;24.95;7.38;;;11.50;99.90;;;;;;5030776;28;20017;-72
2023/11/13 08:55:00;;;;;;;27.02;8.60;;;11.50;99.90;;;;;;5026795;28;20030;-72
2023/11/13 08:57:26;;;;;;;24.42;6.88;;;11.40;99.90;;;;;;5027655;28;20572;-71
2023/11/13 08:59:52;;;;;;;24.83;7.05;;;11.40;99.90;;;;;;5024990;28;20104;-72
2023/11/13 09:02:23;;;;;;;24.75;8.18;;;11.30;99.90;;;;;;5022673;28;20440;-73
2023/11/13 09:04:49;;;;;;;19.63;6.15;;;11.30;99.90;;;;;;5031834;28;20108;-76
2023/11/13 09:07:17;;;;;;;20.23;6.32;;;11.30;99.90;;;;;;5029783;28;20025;-72
2023/11/13 09:09:43;;;;;;;26.25;6.25;;;11.20;99.90;;;;;;5016588;28;20126;-71
2023/11/13 09:12:12;;;;;;;23.27;5.90;;;11.30;99.90;;;;;;5023113;28;20021;-73
2023/11/13 09:14:38;;;;;;;17.52;5.72;;;11.40;99.90;;;;;;5023984;28;20465;-73
2023/11/13 09:17:12;;;;;;;21.63;5.63;;;11.30;99.90;;;;;;5025275;28;20048;-73
2023/11/13 09:19:40;;;;;;;35.58;6.70;;;11.40;99.90;;;;;;5027316;28;20037;-74
2023/11/13 09:22:10;;;;;;;13.13;5.20;;;11.30;99.90;;;;;;5026408;28;20021;-73
2023/11/13 09:24:38;;;;;;;22.20;5.80;;;11.30;99.90;;;;;;5032357;28;20598;-74
2023/11/13 09:27:09;;;;;;;13.10;5.53;;;11.40;99.90;;;;;;5021755;28;20013;-75
2023/11/13 09:29:36;;;;;;;17.33;5.82;;;11.40;99.90;;;;;;5022737;28;20029;-75
2023/11/13 09:32:02;;;;;;;13.23;5.65;;;11.40;99.90;;;;;;5029428;28;20028;-73
2023/11/13 09:34:27;;;;;;;13.50;4.85;;;11.50;99.90;;;;;;5031516;28;20026;-76
2023/11/13 09:36:53;;;;;;;17.42;6.45;;;11.60;99.90;;;;;;5022591;28;20422;-74
2023/11/13 09:39:19;;;;;;;25.38;8.00;;;11.60;99.90;;;;;;5025585;28;20033;-74
2023/11/13 09:41:50;;;;;;;16.92;6.97;;;11.60;99.90;;;;;;5025914;28;20025;-81
2023/11/13 09:44:18;;;;;;;23.83;7.03;;;11.60;99.90;;;;;;5030485;28;20444;-74
2023/11/13 09:46:44;;;;;;;21.13;7.70;;;11.70;99.90;;;;;;5020449;28;20075;-74
2023/11/13 09:49:11;;;;;;;15.90;6.32;;;11.80;99.90;;;;;;5014971;28;20030;-73
2023/11/13 09:51:38;;;;;;;26.27;7.22;;;11.80;99.90;;;;;;5025232;27;20029;-73
2023/11/13 09:54:04;;;;;;;19.00;6.00;;;11.80;99.90;;;;;;5031778;28;20025;-73
2023/11/13 09:56:30;;;;;;;14.70;6.63;;;11.80;99.90;;;;;;5035630;27;20510;-74
2023/11/13 09:59:02;;;;;;;24.13;7.20;;;11.90;99.90;;;;;;5025395;27;20049;-74
2023/11/13 10:01:28;;;;;;;15.43;7.40;;;12.00;99.90;;;;;;5020924;28;20047;-76
2023/11/13 10:03:55;;;;;;;14.50;6.15;;;12.00;99.90;;;;;;5023782;27;20034;-74
2023/11/13 10:06:22;;;;;;;17.92;5.72;;;12.10;99.90;;;;;;5029779;28;20018;-74
2023/11/13 10:08:49;;;;;;;17.83;6.38;;;12.10;99.90;;;;;;5021856;28;21047;-73
2023/11/13 10:11:16;;;;;;;17.00;6.25;;;12.10;99.90;;;;;;5024601;27;20013;-74
2023/11/13 10:13:42;;;;;;;19.92;5.88;;;12.20;99.90;;;;;;5023574;27;20522;-74
2023/11/13 10:16:22;;;;;;;14.10;6.07;;;12.20;99.90;;;;;;5026365;27;22658;-73
2023/11/13 10:18:49;;;;;;;21.67;6.03;;;12.30;99.90;;;;;;5033017;27;20481;-72
2023/11/13 10:21:41;;;;;;;17.63;6.13;;;12.30;99.90;;;;;;5034473;27;20054;-73
2023/11/13 10:24:33;;;;;;;19.17;6.50;;;12.40;99.90;;;;;;5035569;27;20037;-74
2023/11/13 10:26:59;;;;;;;15.38;5.70;;;12.50;99.90;;;;;;5021648;27;20045;-72
2023/11/13 10:29:27;;;;;;;17.52;5.88;;;12.50;99.90;;;;;;5031327;27;20033;-73
2023/11/13 10:32:01;;;;;;;25.70;6.32;;;12.50;99.90;;;;;;5023110;27;20075;-73
2023/11/13 10:34:49;;;;;;;15.52;5.43;;;12.60;99.90;;;;;;5028669;27;20564;-72
2023/11/13 10:37:16;;;;;;;20.92;6.47;;;12.60;99.90;;;;;;5023640;27;20015;-72
2023/11/13 10:39:42;;;;;;;20.45;5.30;;;12.60;99.90;;;;;;5033135;28;20029;-72
2023/11/13 10:42:26;;;;;;;18.40;5.85;;;12.70;99.90;;;;;;5020681;27;20040;-75
2023/11/13 10:44:52;;;;;;;17.83;5.75;;;12.70;99.90;;;;;;5028023;27;20897;-72
2023/11/13 10:47:25;;;;;;;20.55;6.70;;;12.80;99.90;;;;;;5025353;27;20500;-73
2023/11/13 10:49:54;;;;;;;17.75;6.72;;;12.90;99.90;;;;;;5029294;27;20115;-72
2023/11/13 10:52:29;;;;;;;23.15;6.82;;;12.90;99.90;;;;;;5030799;27;20026;-73
2023/11/13 10:54:59;;;;;;;21.48;6.38;;;13.00;99.90;;;;;;5026744;27;20035;-72
2023/11/13 10:57:26;;;;;;;24.73;7.22;;;13.00;99.90;;;;;;5025399;27;20027;-74
2023/11/13 10:59:56;;;;;;;20.98;6.97;;;13.10;99.90;;;;;;5023780;27;20025;-73
2023/11/13 11:02:30;;;;;;;26.08;9.52;;;13.10;99.90;;;;;;5032054;28;20501;-74
2023/11/13 11:04:59;;;;;;;23.05;7.13;;;13.20;99.90;;;;;;5023086;27;20030;-73
2023/11/13 11:07:27;;;;;;;22.85;8.00;;;13.20;99.90;;;;;;5028163;27;20137;-74
2023/11/13 11:10:01;;;;;;;25.42;9.32;;;13.20;99.90;;;;;;5029397;27;20573;-73
2023/11/13 11:12:46;;;;;;;26.27;8.07;;;13.20;99.90;;;;;;5035282;27;20033;-73
2023/11/13 11:15:32;;;;;;;26.88;7.40;;;13.20;99.90;;;;;;5036176;27;20021;-74
2023/11/13 11:18:27;;;;;;;25.60;8.32;;;13.30;99.90;;;;;;5025905;27;20034;-72
2023/11/13 11:21:08;;;;;;;25.10;8.77;;;13.30;99.90;;;;;;5030030;27;20506;-72
2023/11/13 11:24:02;;;;;;;36.78;9.45;;;13.40;99.90;;;;;;5034426;27;20500;-73
2023/11/13 11:26:27;;;;;;;32.63;9.25;;;13.40;99.90;;;;;;5005000;28;20034;-72
2023/11/13 11:28:54;;;;;;;39.92;8.95;;;13.40;99.90;;;;;;5028638;27;20029;-76
2023/11/13 11:31:33;;;;;;;23.48;10.70;;;13.50;99.90;;;;;;5023779;27;20061;-72
2023/11/13 11:34:00;;;;;;;35.42;8.95;;;13.50;99.90;;;;;;5031142;27;20505;-72
2023/11/13 11:36:29;;;;;;;36.22;10.55;;;13.50;99.90;;;;;;5017084;28;20047;-72
2023/11/13 11:39:25;;;;;;;29.73;10.63;;;13.60;99.90;;;;;;5022622;27;20669;-72
2023/11/13 11:41:51;;;;;;;39.45;11.02;;;13.70;99.90;;;;;;5020042;28;20124;-73
2023/11/13 11:44:59;;;;;;;31.15;10.55;;;13.70;99.90;;;;;;5027569;27;20032;-72
2023/11/13 11:47:27;;;;;;;36.15;10.00;;;13.70;99.90;;;;;;5034991;27;20124;-69
2023/11/13 11:49:57;;;;;;;34.33;11.48;;;13.80;99.90;;;;;;5033886;27;20098;-71
2023/11/13 11:52:41;;;;;;;36.33;10.98;;;13.90;99.90;;;;;;5024110;28;20034;-72
2023/11/13 11:55:12;;;;;;;42.13;10.95;;;13.90;99.90;;;;;;5029824;27;20486;-71
2023/11/13 11:57:43;;;;;;;44.50;11.73;;;14.00;99.90;;;;;;5020653;27;20033;-72
2023/11/13 12:00:15;;;;;;;31.88;10.18;;;14.00;99.90;;;;;;5033089;27;20058;-72
2023/11/13 12:02:42;;;;;;;24.65;8.05;;;14.00;99.90;;;;;;5029901;27;20465;-72
2023/11/13 12:05:08;;;;;;;25.70;8.77;;;14.10;99.90;;;;;;5022874;28;20033;-72
2023/11/13 12:07:34;;;;;;;29.40;9.57;;;14.10;99.90;;;;;;5030802;27;20033;-72
2023/11/13 12:10:08;;;;;;;30.17;8.68;;;14.10;99.90;;;;;;5030355;28;20034;-72
2023/11/13 12:12:36;;;;;;;29.83;9.30;;;14.20;99.90;;;;;;5032148;27;20018;-71
2023/11/13 12:15:07;;;;;;;30.27;9.60;;;14.20;99.90;;;;;;5028852;28;20032;-72
2023/11/13 12:17:36;;;;;;;32.78;9.50;;;14.20;99.90;;;;;;5023077;27;20208;-74
2023/11/13 12:20:06;;;;;;;31.52;9.48;;;14.30;99.90;;;;;;5023838;27;20025;-76
2023/11/13 12:22:39;;;;;;;39.03;11.15;;;14.30;99.90;;;;;;5034094;27;20454;-71
2023/11/13 12:25:05;;;;;;;;;;;14.40;99.90;;;;;;5023071;27;20048;-71
2023/11/13 12:27:31;;;;;;;28.90;9.25;;;14.40;99.90;;;;;;5031949;27;19950;-72
2023/11/13 12:30:04;;;;;;;20.75;9.20;;;14.40;99.90;;;;;;5040919;28;20017;-71
2023/11/13 12:32:34;;;;;;;28.35;9.90;;;14.50;99.90;;;;;;5015641;27;20037;-84
2023/11/13 12:35:01;;;;;;;31.70;8.38;;;14.50;99.90;;;;;;5026562;27;20025;-72
2023/11/13 12:37:27;;;;;;;24.88;9.32;;;14.50;99.90;;;;;;5030355;27;20033;-72